Time;durP1;ratioP1;P1;durP2;ratioP2;P2;SDS_P1;SDS_P2;PMS_P1;PMS_P2;Temp;Humidity;BMP_temperature;BMP_pressure;BME280_temperature;BME280_humidity;BME280_pressure;Samples;Min_cycle;Max_cycle;Signal;HPM_P1;HPM_P2
2022/04/18 00:00:11;;;;;;;7.03;1.27;;;7.60;99.90;;;;;;5227710;28;20021;-70
2022/04/18 00:02:42;;;;;;;11.68;1.80;;;7.60;99.90;;;;;;5226341;28;20060;-89
2022/04/18 00:05:13;;;;;;;12.98;1.42;;;7.70;99.90;;;;;;5227304;28;20489;-69
2022/04/18 00:07:44;;;;;;;9.63;1.77;;;7.70;99.90;;;;;;5227601;28;20474;-70
2022/04/18 00:10:15;;;;;;;10.98;1.38;;;7.60;99.90;;;;;;5227397;28;20024;-70
2022/04/18 00:12:46;;;;;;;7.72;2.22;;;7.70;99.90;;;;;;5227364;28;20122;-69
2022/04/18 00:15:17;;;;;;;10.65;1.20;;;7.60;99.90;;;;;;5227436;28;20096;-70
2022/04/18 00:17:47;;;;;;;11.80;1.70;;;7.70;99.90;;;;;;5226456;28;20076;-85
2022/04/18 00:20:18;;;;;;;5.05;1.42;;;7.50;99.90;;;;;;5227503;28;20457;-70
2022/04/18 00:22:49;;;;;;;6.07;1.30;;;7.60;99.90;;;;;;5227386;28;20025;-70
2022/04/18 00:25:20;;;;;;;6.50;1.30;;;7.60;99.90;;;;;;5227274;28;20021;-69
2022/04/18 00:27:51;;;;;;;8.02;1.27;;;7.60;99.90;;;;;;5227366;28;20035;-87
2022/04/18 00:30:22;;;;;;;3.97;1.13;;;7.60;99.90;;;;;;5227248;28;20009;-69
2022/04/18 00:32:52;;;;;;;5.22;0.90;;;7.50;99.90;;;;;;5225972;28;20025;-70
2022/04/18 00:35:23;;;;;;;5.75;0.82;;;7.70;99.90;;;;;;5227085;28;20029;-69
2022/04/18 00:37:54;;;;;;;6.65;1.10;;;7.70;99.90;;;;;;5226203;28;20449;-90
2022/04/18 00:40:25;;;;;;;10.32;1.00;;;7.60;99.90;;;;;;5227296;28;20023;-69
2022/04/18 00:43:06;;;;;;;9.38;1.65;;;7.60;99.90;;;;;;5227156;28;20100;-88
2022/04/18 00:45:37;;;;;;;6.53;0.88;;;7.60;99.90;;;;;;5225770;28;20035;-70
2022/04/18 00:48:08;;;;;;;7.20;1.45;;;7.60;99.90;;;;;;5227745;28;20033;-89
2022/04/18 00:50:40;;;;;;;8.20;1.40;;;7.60;99.90;;;;;;5231205;28;20487;-71
2022/04/18 00:53:11;;;;;;;7.97;1.60;;;7.50;99.90;;;;;;5231083;28;20071;-69
2022/04/18 00:55:42;;;;;;;8.65;1.40;;;7.70;99.90;;;;;;5230978;28;20005;-70
2022/04/18 00:58:14;;;;;;;9.88;1.10;;;7.60;99.90;;;;;;5231128;28;20017;-90
2022/04/18 01:00:44;;;;;;;7.38;1.60;;;7.50;99.90;;;;;;5231152;28;20444;-70
2022/04/18 01:03:15;;;;;;;6.35;1.23;;;7.60;99.90;;;;;;5231182;28;20099;-72
2022/04/18 01:05:47;;;;;;;6.65;1.50;;;7.50;99.90;;;;;;5229468;28;20370;-90
2022/04/18 01:08:18;;;;;;;9.82;1.38;;;7.60;99.90;;;;;;5230773;28;20039;-69
2022/04/18 01:10:49;;;;;;;11.60;1.55;;;7.70;99.90;;;;;;5229564;28;20033;-69
2022/04/18 01:13:20;;;;;;;7.57;1.60;;;7.60;99.90;;;;;;5230633;28;20476;-69
2022/04/18 01:15:53;;;;;;;15.60;1.90;;;7.60;99.90;;;;;;5230733;28;20538;-69
2022/04/18 01:18:24;;;;;;;9.40;1.38;;;7.60;99.90;;;;;;5230609;28;20021;-69
2022/04/18 01:20:55;;;;;;;9.13;1.30;;;7.60;99.90;;;;;;5230716;28;20546;-69
2022/04/18 01:23:26;;;;;;;6.43;1.70;;;7.50;99.90;;;;;;5230587;28;20424;-69
2022/04/18 01:28:58;;;;;;;4.22;1.13;;;7.40;99.90;;;;;;5230294;28;20032;-69
2022/04/18 01:31:32;;;;;;;6.43;1.63;;;7.60;99.90;;;;;;5229085;28;20384;-90
2022/04/18 01:34:04;;;;;;;5.43;0.98;;;7.50;99.90;;;;;;5230276;28;20028;-70
2022/04/18 01:36:35;;;;;;;8.93;1.58;;;7.50;99.90;;;;;;5230091;28;20037;-69
2022/04/18 01:39:06;;;;;;;7.68;1.42;;;7.60;99.90;;;;;;5230303;28;20520;-69
2022/04/18 01:41:37;;;;;;;12.25;1.70;;;7.50;99.90;;;;;;5229880;28;20033;-87
2022/04/18 01:44:07;;;;;;;6.85;1.17;;;7.40;99.90;;;;;;5230091;28;20100;-87
2022/04/18 01:46:38;;;;;;;10.18;1.17;;;7.40;99.90;;;;;;5228782;28;20041;-70
2022/04/18 01:49:09;;;;;;;12.73;1.27;;;7.40;99.90;;;;;;5230027;28;20096;-87
2022/04/18 01:51:40;;;;;;;6.88;1.10;;;7.40;99.90;;;;;;5229820;28;20044;-70
2022/04/18 01:54:10;;;;;;;12.65;1.52;;;7.50;99.90;;;;;;5229863;28;20025;-69
2022/04/18 01:56:41;;;;;;;9.43;1.70;;;7.50;99.90;;;;;;5229890;28;20060;-87
2022/04/18 01:59:12;;;;;;;9.35;1.55;;;7.40;99.90;;;;;;5229406;28;20043;-86
2022/04/18 02:01:43;;;;;;;12.57;1.40;;;7.40;99.90;;;;;;5229789;28;20028;-87
2022/04/18 02:04:14;;;;;;;6.95;1.30;;;7.40;99.90;;;;;;5229656;28;20419;-84
2022/04/18 02:06:44;;;;;;;7.35;1.35;;;7.40;99.90;;;;;;5229527;28;20089;-86
2022/04/18 02:09:15;;;;;;;7.65;1.25;;;7.40;99.90;;;;;;5229515;28;20472;-70
2022/04/18 02:11:46;;;;;;;8.10;1.92;;;7.40;99.90;;;;;;5228129;28;20428;-70
2022/04/18 02:14:17;;;;;;;9.98;1.55;;;7.40;99.90;;;;;;5229339;28;20096;-70
2022/04/18 02:16:48;;;;;;;8.27;1.50;;;7.30;99.90;;;;;;5229555;28;20108;-70
2022/04/18 02:19:19;;;;;;;11.55;2.45;;;7.30;99.90;;;;;;5228174;28;20112;-69
2022/04/18 02:21:50;;;;;;;11.60;1.60;;;7.40;99.90;;;;;;5229326;28;20033;-70
2022/04/18 02:24:21;;;;;;;6.40;1.67;;;7.40;99.90;;;;;;5229294;28;20092;-69
2022/04/18 02:26:52;;;;;;;5.28;1.20;;;7.40;99.90;;;;;;5229198;28;20037;-71
2022/04/18 02:29:23;;;;;;;8.02;1.20;;;7.40;99.90;;;;;;5227780;28;20130;-69
2022/04/18 02:34:43;;;;;;;10.10;1.60;;;7.50;99.90;;;;;;5228871;28;20033;-69
2022/04/18 02:37:14;;;;;;;9.55;1.70;;;7.40;99.90;;;;;;5229054;28;20017;-70
2022/04/18 02:39:46;;;;;;;8.80;1.77;;;7.40;99.90;;;;;;5228801;28;20072;-69
2022/04/18 02:42:20;;;;;;;13.63;1.52;;;7.40;99.90;;;;;;5228915;28;20021;-69
2022/04/18 02:44:51;;;;;;;8.18;1.27;;;7.40;99.90;;;;;;5228958;28;20029;-69
2022/04/18 02:47:22;;;;;;;9.50;2.00;;;7.40;99.90;;;;;;5228814;28;20135;-70
2022/04/18 02:49:52;;;;;;;8.57;1.45;;;7.40;99.90;;;;;;5228731;28;20537;-69
2022/04/18 02:52:23;;;;;;;10.65;1.48;;;7.30;99.90;;;;;;5228814;28;20108;-69
2022/04/18 02:54:54;;;;;;;8.50;1.67;;;7.30;99.90;;;;;;5228433;28;20032;-70
2022/04/18 02:57:25;;;;;;;13.68;1.65;;;7.30;99.90;;;;;;5228624;28;20561;-69
2022/04/18 02:59:56;;;;;;;10.13;2.00;;;7.30;99.90;;;;;;5228353;28;20404;-85
2022/04/18 03:02:26;;;;;;;12.43;2.10;;;7.30;99.90;;;;;;5227822;28;20485;-69
2022/04/18 03:04:57;;;;;;;12.98;1.50;;;7.30;99.90;;;;;;5228221;28;20053;-69
2022/04/18 03:07:28;;;;;;;16.98;1.60;;;7.30;99.90;;;;;;5228359;28;20090;-69
2022/04/18 03:09:59;;;;;;;13.55;1.83;;;7.30;99.90;;;;;;5227859;28;20061;-69
2022/04/18 03:12:30;;;;;;;9.90;1.60;;;7.30;99.90;;;;;;5228056;28;20021;-69
2022/04/18 03:15:02;;;;;;;8.18;1.50;;;7.40;99.90;;;;;;5227059;28;20029;-69
2022/04/18 03:17:32;;;;;;;11.27;1.42;;;7.30;99.90;;;;;;5228197;28;20032;-69
2022/04/18 03:20:05;;;;;;;16.67;2.38;;;7.30;99.90;;;;;;5228266;28;20029;-70
2022/04/18 03:22:36;;;;;;;11.75;1.80;;;7.30;99.90;;;;;;5228233;28;20021;-69
2022/04/18 03:25:07;;;;;;;8.13;1.08;;;7.30;99.90;;;;;;5227966;28;20027;-69
2022/04/18 03:27:37;;;;;;;11.52;1.50;;;7.30;99.90;;;;;;5228061;28;20040;-69
2022/04/18 03:30:09;;;;;;;10.10;1.17;;;7.30;99.90;;;;;;5228065;28;20025;-83
2022/04/18 03:32:40;;;;;;;9.10;1.55;;;7.20;99.90;;;;;;5227985;28;20036;-69
2022/04/18 03:35:11;;;;;;;9.88;1.85;;;7.20;99.90;;;;;;5227762;28;20036;-69
2022/04/18 03:40:31;;;;;;;13.75;2.10;;;7.30;99.90;;;;;;5227716;28;20047;-69
2022/04/18 03:43:01;;;;;;;10.10;1.58;;;7.10;99.90;;;;;;5226509;28;20025;-69
2022/04/18 03:45:32;;;;;;;11.20;1.65;;;7.10;99.90;;;;;;5227571;28;20021;-69
2022/04/18 03:48:04;;;;;;;12.07;1.90;;;7.10;99.90;;;;;;5227607;28;20476;-70
2022/04/18 03:50:34;;;;;;;13.07;2.15;;;7.10;99.90;;;;;;5227522;28;20013;-69
2022/04/18 03:53:05;;;;;;;15.90;2.47;;;7.10;99.90;;;;;;5227669;28;20031;-70
2022/04/18 03:55:36;;;;;;;16.00;2.33;;;7.20;99.90;;;;;;5227531;28;20461;-70
2022/04/18 03:58:07;;;;;;;12.85;2.30;;;7.10;99.90;;;;;;5227341;28;20063;-69
2022/04/18 04:00:39;;;;;;;12.48;2.78;;;7.10;99.90;;;;;;5227213;28;20021;-69
2022/04/18 04:03:11;;;;;;;14.18;2.05;;;7.10;99.90;;;;;;5227375;28;20025;-69
2022/04/18 04:05:41;;;;;;;9.68;2.13;;;7.00;99.90;;;;;;5226830;28;20523;-69
2022/04/18 04:08:12;;;;;;;14.55;2.70;;;7.00;99.90;;;;;;5227494;28;20033;-69
2022/04/18 04:10:43;;;;;;;10.20;2.28;;;6.90;99.90;;;;;;5227363;28;20436;-69
2022/04/18 04:13:14;;;;;;;8.07;1.80;;;7.00;99.90;;;;;;5227269;28;20034;-83
2022/04/18 04:15:45;;;;;;;11.50;2.22;;;7.10;99.90;;;;;;5227430;28;20060;-69
2022/04/18 04:18:16;;;;;;;6.53;1.65;;;7.00;99.90;;;;;;5227468;28;20075;-89
2022/04/18 04:20:46;;;;;;;8.38;1.60;;;6.90;99.90;;;;;;5227433;28;20460;-69
2022/04/18 04:23:17;;;;;;;6.60;1.20;;;7.10;99.90;;;;;;5230628;28;20107;-70
2022/04/18 04:25:48;;;;;;;7.32;1.70;;;6.90;99.90;;;;;;5230373;28;20087;-69
2022/04/18 04:28:19;;;;;;;7.40;1.40;;;7.00;99.90;;;;;;5230294;28;20032;-69
2022/04/18 04:30:50;;;;;;;7.20;1.55;;;6.90;99.90;;;;;;5231573;28;20457;-69
2022/04/18 04:33:20;;;;;;;16.77;1.80;;;6.90;99.90;;;;;;5231221;28;20074;-69
2022/04/18 04:35:51;;;;;;;10.20;2.03;;;6.80;99.90;;;;;;5231158;28;20068;-69
2022/04/18 04:38:22;;;;;;;8.02;1.20;;;6.80;99.90;;;;;;5231237;28;20460;-70
2022/04/18 04:40:54;;;;;;;9.13;2.25;;;6.80;99.90;;;;;;5231398;28;20029;-69
2022/04/18 04:43:28;;;;;;;9.55;1.65;;;6.80;99.90;;;;;;5231205;28;20052;-71
2022/04/18 04:46:01;;;;;;;6.38;1.75;;;6.70;99.90;;;;;;5231102;28;20033;-69
2022/04/18 04:48:32;;;;;;;5.75;1.42;;;6.80;99.90;;;;;;5229969;28;20028;-69
2022/04/18 04:51:03;;;;;;;8.18;2.28;;;6.80;99.90;;;;;;5231107;28;20025;-69
2022/04/18 04:53:35;;;;;;;10.82;2.10;;;6.80;99.90;;;;;;5229750;28;20628;-69
2022/04/18 04:56:05;;;;;;;8.00;1.90;;;6.80;99.90;;;;;;5231239;28;20028;-69
2022/04/18 04:58:36;;;;;;;9.38;1.50;;;6.80;99.90;;;;;;5230819;28;20082;-69
2022/04/18 05:01:07;;;;;;;7.75;1.30;;;6.80;99.90;;;;;;5230852;28;20514;-69
2022/04/18 05:03:38;;;;;;;10.75;1.60;;;6.70;99.90;;;;;;5229507;28;20025;-69
2022/04/18 05:06:11;;;;;;;10.75;2.00;;;6.80;99.90;;;;;;5230575;28;20053;-69
2022/04/18 05:08:42;;;;;;;7.15;1.30;;;6.70;99.90;;;;;;5230717;28;20020;-69
2022/04/18 05:11:13;;;;;;;6.07;1.38;;;6.70;99.90;;;;;;5230428;28;20036;-69
2022/04/18 05:13:43;;;;;;;9.75;1.33;;;6.60;99.90;;;;;;5229252;28;20017;-69
2022/04/18 05:16:14;;;;;;;8.38;1.45;;;6.60;99.90;;;;;;5230730;28;20368;-69
2022/04/18 05:18:45;;;;;;;5.65;1.38;;;6.50;99.90;;;;;;5230516;28;20546;-69
2022/04/18 05:21:16;;;;;;;8.07;1.80;;;6.60;99.90;;;;;;5230604;28;20462;-69
2022/04/18 05:23:48;;;;;;;10.50;1.70;;;6.50;99.90;;;;;;5230459;28;20067;-69
2022/04/18 05:26:19;;;;;;;6.72;1.20;;;6.50;99.90;;;;;;5230427;28;20021;-69
2022/04/18 05:28:50;;;;;;;4.50;1.00;;;6.40;99.90;;;;;;5230394;28;20046;-69
2022/04/18 05:31:21;;;;;;;13.23;2.15;;;6.40;99.90;;;;;;5230352;28;20108;-69
2022/04/18 05:33:51;;;;;;;8.90;1.92;;;6.40;99.90;;;;;;5229406;28;20100;-69
2022/04/18 05:36:22;;;;;;;8.35;1.40;;;6.40;99.90;;;;;;5228902;28;20029;-69
2022/04/18 05:38:53;;;;;;;6.85;0.85;;;6.40;99.90;;;;;;5230288;28;20021;-68
2022/04/18 05:41:24;;;;;;;6.57;1.10;;;6.30;99.90;;;;;;5230163;28;20025;-69
2022/04/18 05:43:55;;;;;;;6.65;1.15;;;6.40;99.90;;;;;;5229817;28;20028;-68
2022/04/18 05:46:26;;;;;;;6.53;1.23;;;6.30;99.90;;;;;;5229982;28;20029;-68
2022/04/18 05:48:57;;;;;;;8.50;1.77;;;6.30;99.90;;;;;;5229983;28;20066;-68
2022/04/18 05:51:28;;;;;;;8.20;1.40;;;6.30;99.90;;;;;;5230095;28;20426;-68
2022/04/18 05:54:00;;;;;;;8.25;1.60;;;6.20;99.90;;;;;;5229866;28;20029;-69
2022/04/18 05:56:31;;;;;;;5.60;1.60;;;6.20;99.90;;;;;;5229842;28;20399;-69
2022/04/18 05:59:02;;;;;;;7.22;1.40;;;6.20;99.90;;;;;;5229755;28;20037;-69
2022/04/18 06:01:34;;;;;;;9.38;1.17;;;6.30;99.90;;;;;;5229615;28;20496;-70
2022/04/18 06:04:05;;;;;;;7.53;2.05;;;6.20;99.90;;;;;;5229793;28;20017;-69
2022/04/18 06:06:36;;;;;;;3.90;1.08;;;6.20;99.90;;;;;;5229498;28;20393;-92
2022/04/18 06:09:06;;;;;;;7.15;1.17;;;6.30;99.90;;;;;;5230049;28;20021;-81
2022/04/18 06:11:37;;;;;;;5.80;0.90;;;6.30;99.90;;;;;;5229842;28;20420;-68
2022/04/18 06:14:08;;;;;;;10.85;7.05;;;6.30;99.90;;;;;;5229447;28;20519;-69
2022/04/18 06:16:39;;;;;;;8.85;2.15;;;6.20;99.90;;;;;;5229523;28;20415;-69
2022/04/18 06:19:09;;;;;;;8.25;6.35;;;6.00;99.90;;;;;;5229324;28;20074;-68
2022/04/18 06:21:40;;;;;;;17.15;9.02;;;6.20;99.90;;;;;;5228187;28;20619;-68
2022/04/18 06:24:11;;;;;;;15.43;8.95;;;6.20;99.90;;;;;;5229219;28;20587;-68
2022/04/18 06:26:42;;;;;;;28.10;17.83;;;6.10;99.90;;;;;;5229273;28;20116;-69
2022/04/18 06:29:13;;;;;;;10.10;5.55;;;6.10;99.90;;;;;;5231459;28;20040;-69
2022/04/18 06:31:44;;;;;;;7.85;2.58;;;6.10;99.90;;;;;;5238545;28;20084;-68
2022/04/18 06:34:16;;;;;;;9.32;2.70;;;6.20;99.90;;;;;;5237904;28;20159;-76
2022/04/18 06:36:47;;;;;;;6.35;1.70;;;6.10;99.90;;;;;;5236863;28;20017;-82
2022/04/18 06:39:18;;;;;;;4.60;1.55;;;6.00;99.90;;;;;;5236804;28;20031;-80
2022/04/18 06:41:49;;;;;;;4.82;1.80;;;6.00;99.90;;;;;;5238066;28;20507;-68
2022/04/18 06:44:19;;;;;;;9.40;2.95;;;6.00;99.90;;;;;;5237562;28;20021;-69
2022/04/18 06:46:50;;;;;;;4.43;0.77;;;6.00;99.90;;;;;;5236748;28;20110;-68
2022/04/18 06:49:21;;;;;;;8.75;1.40;;;6.10;99.90;;;;;;5237188;28;20067;-70
2022/04/18 06:51:52;;;;;;;5.43;0.70;;;6.00;99.90;;;;;;5241542;28;20029;-81
2022/04/18 06:54:23;;;;;;;8.13;1.25;;;6.20;99.90;;;;;;5235657;28;20021;-71
2022/04/18 06:56:59;;;;;;;8.57;1.55;;;6.20;99.90;;;;;;5236088;28;20029;-81
2022/04/18 06:59:31;;;;;;;11.50;1.08;;;6.00;99.90;;;;;;5239090;28;20024;-69
2022/04/18 07:02:01;;;;;;;6.28;1.30;;;6.20;99.90;;;;;;5236615;28;20082;-80
2022/04/18 07:04:32;;;;;;;4.68;0.80;;;6.20;99.90;;;;;;5235890;28;20053;-81
2022/04/18 07:07:05;;;;;;;3.60;0.75;;;6.20;99.90;;;;;;5237193;28;20028;-83
2022/04/18 07:09:36;;;;;;;42.90;25.25;;;6.30;99.90;;;;;;5237501;28;20365;-82
2022/04/18 07:12:07;;;;;;;13.23;7.20;;;6.20;99.90;;;;;;5236830;28;20025;-69
2022/04/18 07:14:38;;;;;;;7.45;1.38;;;6.40;99.90;;;;;;5230478;28;20029;-68
2022/04/18 07:17:09;;;;;;;8.07;1.40;;;6.30;99.90;;;;;;5234392;28;20123;-68
2022/04/18 07:19:40;;;;;;;5.25;1.55;;;6.40;99.90;;;;;;5235939;28;20028;-81
2022/04/18 07:22:11;;;;;;;5.95;1.13;;;6.40;99.90;;;;;;5236773;28;20051;-69
2022/04/18 07:24:42;;;;;;;10.13;2.42;;;6.50;99.90;;;;;;5237159;28;20017;-69
2022/04/18 07:27:12;;;;;;;8.25;1.17;;;6.30;99.90;;;;;;5236545;28;20036;-71
2022/04/18 07:29:43;;;;;;;6.40;1.20;;;6.40;99.90;;;;;;5234412;28;20476;-69
2022/04/18 07:32:14;;;;;;;4.97;0.85;;;6.40;99.90;;;;;;5235993;28;20027;-69
2022/04/18 07:34:47;;;;;;;6.57;1.02;;;6.40;99.90;;;;;;5236761;28;20435;-70
2022/04/18 07:37:17;;;;;;;6.95;1.50;;;6.50;99.90;;;;;;5235945;28;20036;-80
2022/04/18 07:39:48;;;;;;;5.32;1.30;;;6.60;99.90;;;;;;5236774;28;20079;-82
2022/04/18 07:42:19;;;;;;;6.72;1.30;;;6.70;99.90;;;;;;5235523;28;20115;-81
2022/04/18 07:44:50;;;;;;;4.35;1.25;;;6.60;99.90;;;;;;5236019;28;20060;-82
2022/04/18 07:47:21;;;;;;;8.30;1.50;;;6.30;99.90;;;;;;5235554;28;20440;-83
2022/04/18 07:49:52;;;;;;;3.47;1.42;;;6.40;99.90;;;;;;5235840;28;20101;-80
2022/04/18 07:52:22;;;;;;;4.05;1.63;;;6.40;99.90;;;;;;5234042;28;20021;-81
2022/04/18 07:54:53;;;;;;;8.57;1.70;;;6.50;99.90;;;;;;5236149;28;20031;-78
2022/04/18 07:57:24;;;;;;;9.30;2.53;;;6.40;99.90;;;;;;5236285;28;20455;-78
2022/04/18 07:59:55;;;;;;;12.07;2.95;;;6.40;99.90;;;;;;5235957;28;20103;-79
2022/04/18 08:02:26;;;;;;;11.20;3.30;;;6.50;99.90;;;;;;5235187;28;20013;-81
2022/04/18 08:04:57;;;;;;;10.25;2.10;;;6.70;99.90;;;;;;5238052;28;20048;-69
2022/04/18 08:07:30;;;;;;;6.38;1.60;;;6.60;99.90;;;;;;5239644;28;20132;-69
2022/04/18 08:10:00;;;;;;;12.57;2.15;;;6.40;99.90;;;;;;5247949;28;20036;-69
2022/04/18 08:12:31;;;;;;;8.63;2.35;;;6.60;99.90;;;;;;5246997;28;20036;-69
2022/04/18 08:15:02;;;;;;;7.75;1.05;;;6.70;99.90;;;;;;5248173;28;20021;-69
2022/04/18 08:17:33;;;;;;;8.05;1.90;;;6.60;99.90;;;;;;5248023;28;20097;-69
2022/04/18 08:20:04;;;;;;;9.93;1.85;;;6.80;99.90;;;;;;5247993;28;20021;-69
2022/04/18 08:22:35;;;;;;;7.05;1.88;;;6.80;99.90;;;;;;5245384;28;20033;-82
2022/04/18 08:25:06;;;;;;;6.47;1.20;;;6.70;99.90;;;;;;5236074;28;20029;-80
2022/04/18 08:27:37;;;;;;;5.35;2.72;;;6.70;99.90;;;;;;5233806;28;20396;-76
2022/04/18 08:30:08;;;;;;;10.07;2.58;;;6.70;99.90;;;;;;5230750;28;20025;-69
2022/04/18 08:32:40;;;;;;;10.73;2.55;;;6.70;99.90;;;;;;5227415;28;20055;-68
2022/04/18 08:35:11;;;;;;;6.90;1.90;;;6.80;99.90;;;;;;5231515;28;20056;-83
2022/04/18 08:37:42;;;;;;;6.18;1.70;;;6.80;99.90;;;;;;5225258;28;20037;-82
2022/04/18 08:40:14;;;;;;;9.48;1.55;;;6.80;99.90;;;;;;5226729;28;20032;-83
2022/04/18 08:42:44;;;;;;;11.40;2.38;;;6.70;99.90;;;;;;5226490;28;20029;-83
2022/04/18 08:45:15;;;;;;;9.00;1.88;;;6.50;99.90;;;;;;5225313;28;20075;-82
2022/04/18 08:53:29;;;;;;;6.68;0.95;;;6.80;99.90;;;;;;5227024;28;20036;-80
2022/04/18 08:56:00;;;;;;;5.95;1.38;;;6.90;99.90;;;;;;5227017;28;20025;-81
2022/04/18 08:58:32;;;;;;;7.53;3.03;;;6.90;99.90;;;;;;5227131;28;20110;-69
2022/04/18 09:01:04;;;;;;;7.78;2.92;;;6.80;99.90;;;;;;5225715;28;20029;-69
2022/04/18 09:03:35;;;;;;;8.52;3.90;;;6.90;99.90;;;;;;5234356;28;20491;-71
2022/04/18 09:06:11;;;;;;;7.18;1.98;;;7.10;99.90;;;;;;5229221;28;20061;-83
2022/04/18 09:08:51;;;;;;;7.72;3.33;;;6.70;99.90;;;;;;5227037;28;20046;-84
2022/04/18 09:11:29;;;;;;;9.27;2.78;;;6.70;99.90;;;;;;5238834;28;20123;-69
2022/04/18 09:14:18;;;;;;;10.65;2.08;;;6.90;99.90;;;;;;5229123;28;20033;-89
2022/04/18 09:16:49;;;;;;;12.45;8.15;;;6.80;99.90;;;;;;5230060;28;20021;-69
2022/04/18 09:19:20;;;;;;;8.18;4.63;;;6.60;99.90;;;;;;5237444;28;20400;-83
2022/04/18 09:22:02;;;;;;;11.63;6.07;;;6.60;99.90;;;;;;5238340;28;20021;-86
2022/04/18 09:24:36;;;;;;;6.70;2.90;;;6.50;99.90;;;;;;5238221;28;20055;-79
2022/04/18 09:27:29;;;;;;;8.07;2.97;;;6.50;99.90;;;;;;5238639;28;20170;-68
2022/04/18 09:30:02;;;;;;;16.67;10.55;;;6.60;99.90;;;;;;5235100;28;20017;-69
2022/04/18 09:32:33;;;;;;;21.05;13.55;;;6.40;99.90;;;;;;5243673;28;20033;-79
2022/04/18 09:35:06;;;;;;;14.82;6.60;;;6.60;99.90;;;;;;5251069;28;20023;-78
2022/04/18 09:37:36;;;;;;;23.83;11.77;;;6.50;99.90;;;;;;5235368;28;20040;-77
2022/04/18 09:40:08;;;;;;;9.00;3.10;;;6.40;99.90;;;;;;5234804;28;20021;-69
2022/04/18 09:42:44;;;;;;;11.50;3.80;;;6.40;99.90;;;;;;5230015;28;20074;-68
2022/04/18 09:45:16;;;;;;;11.50;5.50;;;6.50;99.90;;;;;;5234584;28;20020;-68
2022/04/18 09:47:54;;;;;;;8.82;3.22;;;6.60;99.90;;;;;;5250421;28;20055;-68
2022/04/18 09:53:23;;;;;;;9.88;2.63;;;6.50;99.90;;;;;;5250367;28;20039;-68
2022/04/18 09:55:56;;;;;;;6.35;1.90;;;6.30;99.90;;;;;;5250316;28;20455;-68
2022/04/18 09:58:27;;;;;;;5.97;3.00;;;6.40;99.90;;;;;;5250368;28;20434;-69
2022/04/18 10:01:03;;;;;;;7.20;2.17;;;6.60;99.90;;;;;;5249900;28;20111;-68
2022/04/18 10:03:36;;;;;;;9.80;2.30;;;6.50;99.90;;;;;;5250124;28;20036;-68
2022/04/18 10:06:08;;;;;;;3.35;1.42;;;6.50;99.90;;;;;;5249849;28;20384;-68
2022/04/18 10:08:39;;;;;;;6.90;1.70;;;6.50;99.90;;;;;;5249903;28;20032;-68
2022/04/18 10:11:11;;;;;;;6.38;1.50;;;6.60;99.90;;;;;;5249949;28;20033;-68
2022/04/18 10:13:42;;;;;;;6.85;2.15;;;6.60;99.90;;;;;;5249939;28;20025;-68
2022/04/18 10:16:14;;;;;;;6.15;2.45;;;6.70;99.90;;;;;;5250012;28;20027;-68
2022/04/18 10:18:52;;;;;;;7.60;2.42;;;6.60;99.90;;;;;;5249964;28;20027;-68
2022/04/18 10:21:32;;;;;;;7.55;1.77;;;6.80;99.90;;;;;;5249741;28;20037;-68
2022/04/18 10:24:17;;;;;;;6.78;1.60;;;6.70;99.90;;;;;;5248588;28;20021;-68
2022/04/18 10:27:20;;;;;;;4.72;1.58;;;6.40;99.90;;;;;;5248480;28;20555;-68
2022/04/18 10:29:57;;;;;;;7.20;1.60;;;6.60;99.90;;;;;;5249688;28;20021;-68
2022/04/18 10:32:28;;;;;;;4.65;1.65;;;6.50;99.90;;;;;;5249683;28;20432;-68
2022/04/18 10:35:01;;;;;;;5.28;1.90;;;6.40;99.90;;;;;;5249566;28;20028;-68
2022/04/18 10:37:31;;;;;;;7.20;2.38;;;6.70;99.90;;;;;;5249541;28;20021;-68
2022/04/18 10:40:07;;;;;;;8.23;2.38;;;6.60;99.90;;;;;;5248142;28;20478;-68
2022/04/18 10:42:42;;;;;;;12.38;3.70;;;6.80;99.90;;;;;;5248112;28;20115;-68
2022/04/18 10:45:20;;;;;;;4.82;2.10;;;6.70;99.90;;;;;;5249521;28;20372;-68
2022/04/18 10:48:05;;;;;;;6.85;2.08;;;6.50;99.90;;;;;;5247873;28;20503;-68
2022/04/18 10:50:47;;;;;;;5.47;2.08;;;6.70;99.90;;;;;;5247982;28;20131;-68
2022/04/18 10:53:35;;;;;;;2.67;1.27;;;6.60;99.90;;;;;;5249175;28;20461;-68
2022/04/18 10:56:10;;;;;;;4.78;1.08;;;6.50;99.90;;;;;;5249204;28;20112;-68
2022/04/18 10:58:43;;;;;;;4.13;1.50;;;6.50;99.90;;;;;;5249106;28;20414;-68
2022/04/18 11:01:18;;;;;;;2.90;1.25;;;6.70;99.90;;;;;;5249095;28;20030;-69
2022/04/18 11:04:00;;;;;;;3.85;1.65;;;6.60;99.90;;;;;;5247761;28;20028;-68
2022/04/18 11:06:36;;;;;;;4.32;2.00;;;6.70;99.90;;;;;;5248620;28;20057;-68
2022/04/18 11:09:10;;;;;;;5.60;1.90;;;6.90;99.90;;;;;;5247698;28;20025;-68
2022/04/18 11:11:50;;;;;;;5.50;1.20;;;6.70;99.90;;;;;;5248778;28;20056;-68
2022/04/18 11:14:23;;;;;;;5.72;1.27;;;6.40;99.90;;;;;;5248805;28;20546;-78
2022/04/18 11:17:00;;;;;;;5.38;1.50;;;6.70;99.90;;;;;;5248790;28;20052;-68
2022/04/18 11:19:32;;;;;;;6.93;1.75;;;6.60;99.90;;;;;;5248680;28;20066;-69
2022/04/18 11:22:08;;;;;;;5.00;1.52;;;6.60;99.90;;;;;;5236626;28;20052;-68
2022/04/18 11:24:51;;;;;;;5.18;1.80;;;6.70;99.90;;;;;;5228106;28;20464;-68
2022/04/18 11:27:25;;;;;;;5.10;1.80;;;6.60;99.90;;;;;;5238057;28;20035;-68
2022/04/18 11:30:06;;;;;;;3.65;1.42;;;6.70;99.90;;;;;;5233662;28;20024;-68
2022/04/18 11:32:40;;;;;;;3.83;1.40;;;6.70;99.90;;;;;;5226330;28;20408;-68
2022/04/18 11:35:11;;;;;;;6.63;1.00;;;6.70;99.90;;;;;;5226716;28;20055;-68
2022/04/18 11:37:45;;;;;;;11.77;1.70;;;6.40;99.90;;;;;;5227951;28;20037;-68
2022/04/18 11:40:18;;;;;;;4.30;1.20;;;6.40;99.90;;;;;;5226621;28;20477;-68
2022/04/18 11:42:49;;;;;;;7.43;1.50;;;6.30;99.90;;;;;;5244252;28;20021;-68
2022/04/18 11:45:25;;;;;;;47.15;21.35;;;6.60;99.90;;;;;;5248497;28;20093;-68
2022/04/18 11:47:56;;;;;;;27.73;15.63;;;6.50;99.90;;;;;;5248557;28;20040;-68
2022/04/18 11:50:27;;;;;;;22.02;11.88;;;6.30;99.90;;;;;;5248354;28;20415;-68
2022/04/18 11:53:02;;;;;;;10.82;5.03;;;6.30;99.90;;;;;;5248393;28;20025;-68
2022/04/18 11:55:48;;;;;;;7.55;3.47;;;6.50;99.90;;;;;;5248501;28;20391;-68
2022/04/18 11:58:21;;;;;;;19.92;13.05;;;6.40;99.90;;;;;;5248501;28;20376;-68
2022/04/18 12:06:45;;;;;;;18.98;10.30;;;6.60;99.90;;;;;;5227369;28;20075;-68
2022/04/18 12:09:23;;;;;;;15.07;4.95;;;6.50;99.90;;;;;;5238494;28;20103;-68
2022/04/18 12:11:55;;;;;;;7.57;3.80;;;6.60;99.90;;;;;;5248192;28;20561;-68
2022/04/18 12:14:29;;;;;;;5.13;2.20;;;6.50;99.90;;;;;;5248200;28;20020;-68
2022/04/18 12:17:01;;;;;;;5.88;2.05;;;6.60;99.90;;;;;;5247960;28;20029;-68
2022/04/18 12:19:32;;;;;;;3.78;1.65;;;6.50;99.90;;;;;;5248029;28;20016;-68
2022/04/18 12:22:03;;;;;;;6.45;2.50;;;6.50;99.90;;;;;;5248128;28;20095;-68
2022/04/18 12:24:40;;;;;;;13.93;6.72;;;6.80;99.90;;;;;;5248038;28;20071;-68
2022/04/18 12:27:11;;;;;;;78.47;37.63;;;6.50;99.90;;;;;;5248203;28;20480;-68
2022/04/18 12:29:43;;;;;;;18.80;9.38;;;6.70;99.90;;;;;;5247947;28;20019;-79
2022/04/18 12:32:25;;;;;;;16.98;7.60;;;6.40;99.90;;;;;;5247807;28;20017;-68
2022/04/18 12:34:55;;;;;;;13.38;5.15;;;6.70;99.90;;;;;;5247900;28;20024;-68
2022/04/18 12:37:27;;;;;;;13.13;8.13;;;6.70;99.90;;;;;;5246742;28;20090;-68
2022/04/18 12:40:14;;;;;;;7.63;5.20;;;6.40;99.90;;;;;;5247990;28;20020;-69
2022/04/18 12:42:51;;;;;;;6.28;4.00;;;6.50;99.90;;;;;;5248750;28;20020;-68
2022/04/18 12:45:22;;;;;;;9.48;4.97;;;6.70;99.90;;;;;;5252153;28;20391;-68
2022/04/18 12:47:53;;;;;;;5.65;1.48;;;6.40;99.90;;;;;;5251990;28;20036;-68
2022/04/18 12:50:24;;;;;;;5.82;2.10;;;6.60;99.90;;;;;;5251813;28;20070;-68
2022/04/18 12:52:55;;;;;;;4.90;1.20;;;6.80;99.90;;;;;;5250561;28;20082;-68
2022/04/18 12:55:27;;;;;;;5.68;1.60;;;6.70;99.90;;;;;;5251772;28;20020;-69
2022/04/18 12:58:00;;;;;;;5.45;3.17;;;6.60;99.90;;;;;;5251806;28;20028;-68
2022/04/18 13:00:35;;;;;;;5.93;2.58;;;6.40;99.90;;;;;;5251638;28;20017;-68
2022/04/18 13:03:08;;;;;;;7.13;1.55;;;6.50;99.90;;;;;;5250532;28;20024;-67
2022/04/18 13:05:49;;;;;;;2.95;1.70;;;6.30;99.90;;;;;;5251485;28;20438;-69
2022/04/18 13:08:20;;;;;;;10.40;3.83;;;6.30;99.90;;;;;;5251639;28;20533;-69
2022/04/18 13:10:55;;;;;;;53.42;28.15;;;6.60;99.90;;;;;;5251507;28;20028;-69
2022/04/18 13:13:27;;;;;;;40.58;18.40;;;6.60;99.90;;;;;;5251200;28;20031;-81
2022/04/18 13:16:18;;;;;;;17.48;8.52;;;6.60;99.90;;;;;;5250255;28;20020;-80
2022/04/18 13:19:03;;;;;;;20.85;11.43;;;6.50;99.90;;;;;;5250050;28;20032;-68
2022/04/18 13:21:35;;;;;;;14.60;7.80;;;6.40;99.90;;;;;;5251412;28;20154;-68
2022/04/18 13:24:07;;;;;;;16.45;8.05;;;6.60;99.90;;;;;;5251380;28;20074;-69
2022/04/18 13:26:38;;;;;;;11.52;7.05;;;6.30;99.90;;;;;;5251161;28;20048;-68
2022/04/18 13:29:09;;;;;;;7.63;4.07;;;6.40;99.90;;;;;;5250797;28;20032;-68
2022/04/18 13:31:40;;;;;;;14.68;7.57;;;6.50;99.90;;;;;;5249878;28;20031;-68
2022/04/18 13:34:11;;;;;;;14.70;7.93;;;6.40;99.90;;;;;;5249806;28;20020;-68
2022/04/18 13:36:44;;;;;;;11.18;5.05;;;6.50;99.90;;;;;;5251101;28;20028;-69
2022/04/18 13:39:15;;;;;;;13.52;6.05;;;6.40;99.90;;;;;;5250995;28;20032;-68
2022/04/18 13:41:46;;;;;;;10.98;4.10;;;6.50;99.90;;;;;;5249602;28;20024;-68